createdAt,value
2023-03-05T00:00:24.947Z,101059.31
2023-03-05T00:02:52.638Z,101072.94
2023-03-05T00:05:20.424Z,101061.81
2023-03-05T00:07:48.960Z,101071.53
2023-03-05T00:10:17.076Z,101064.63
2023-03-05T00:12:46.134Z,101076.56
2023-03-05T00:15:14.022Z,101070.44
2023-03-05T00:17:41.725Z,101072.28
2023-03-05T00:20:10.614Z,101068.22
2023-03-05T00:22:38.350Z,101066.53
2023-03-05T00:25:09.272Z,101064.88
2023-03-05T00:27:36.934Z,101066.28
2023-03-05T00:30:07.182Z,101063.88
2023-03-05T00:32:36.291Z,101067.66
2023-03-05T00:35:04.252Z,101060.69
2023-03-05T00:37:31.929Z,101060.44
2023-03-05T00:39:59.722Z,101062.28
2023-03-05T00:42:27.483Z,101065.91
2023-03-05T00:44:55.247Z,101061.72
2023-03-05T00:47:24.274Z,101053.81
2023-03-05T00:49:51.960Z,101059.47
2023-03-05T00:52:19.599Z,101056.03
2023-03-05T00:54:47.296Z,101056.84
2023-03-05T00:57:15.113Z,101051.03
2023-03-05T00:59:42.820Z,101046.88
2023-03-05T01:02:10.526Z,101050.31
2023-03-05T01:04:39.604Z,101044.91
2023-03-05T01:07:07.343Z,101044.47
2023-03-05T01:09:35.036Z,101042.41
2023-03-05T01:12:02.685Z,101038.66
2023-03-05T01:14:30.332Z,101046.28
2023-03-05T01:16:57.885Z,101035.75
2023-03-05T01:19:25.577Z,101039.47
2023-03-05T01:21:54.975Z,101032.97
2023-03-05T01:24:22.543Z,101031.84
2023-03-05T01:26:50.322Z,101026.31
2023-03-05T01:29:17.849Z,101030.19
2023-03-05T01:31:45.456Z,101026.13
2023-03-05T01:34:13.659Z,101025.47
2023-03-05T01:36:42.053Z,101026.44
2023-03-05T01:39:11.011Z,101022.53
2023-03-05T01:41:38.462Z,101014.59
2023-03-05T01:44:06.390Z,101017.94
2023-03-05T01:46:37.446Z,101012.94
2023-03-05T01:49:20.981Z,101011.00
2023-03-05T01:51:56.422Z,101008.25
2023-03-05T01:54:27.964Z,101003.25
2023-03-05T01:56:57.490Z,101001.28
2023-03-05T01:59:25.924Z,101002.81
2023-03-05T02:01:56.109Z,101002.13
2023-03-05T02:04:27.523Z,101006.31
2023-03-05T02:06:55.012Z,100998.78
2023-03-05T02:09:24.026Z,100998.66
2023-03-05T02:11:52.992Z,100998.25
2023-03-05T02:14:21.253Z,100993.34
2023-03-05T02:16:48.883Z,100983.78
2023-03-05T02:19:16.479Z,100980.16
2023-03-05T02:21:47.473Z,100981.41
2023-03-05T02:24:15.831Z,100982.41
2023-03-05T02:26:44.702Z,100983.53
2023-03-05T02:29:15.319Z,100974.09
2023-03-05T02:31:43.081Z,100971.84
2023-03-05T02:34:10.682Z,100970.47
2023-03-05T02:36:38.250Z,100964.63
2023-03-05T02:39:07.160Z,100961.03
2023-03-05T02:41:34.729Z,100962.97
2023-03-05T02:44:02.655Z,100963.53
2023-03-05T02:46:31.236Z,100962.00
2023-03-05T02:48:58.704Z,100956.00
2023-03-05T02:51:26.218Z,100959.88
2023-03-05T02:53:53.746Z,100955.44
2023-03-05T02:56:22.745Z,100950.56
2023-03-05T02:58:50.440Z,100943.22
2023-03-05T03:01:17.922Z,100953.78
2023-03-05T03:03:45.518Z,100950.47
2023-03-05T03:06:12.985Z,100948.41
2023-03-05T03:08:40.462Z,100941.16
2023-03-05T03:11:09.031Z,100950.47
2023-03-05T03:13:37.852Z,100931.84
2023-03-05T03:16:06.585Z,100935.84
2023-03-05T03:18:34.292Z,100929.63
2023-03-05T03:21:02.159Z,100928.53
2023-03-05T03:23:29.641Z,100920.47
2023-03-05T03:25:57.150Z,100919.34
2023-03-05T03:28:24.653Z,100921.69
2023-03-05T03:30:53.529Z,100934.22
2023-03-05T03:33:21.049Z,100917.97
2023-03-05T03:35:48.603Z,100925.16
2023-03-05T03:38:16.145Z,100929.56
2023-03-05T03:40:43.658Z,100921.56
2023-03-05T03:43:11.168Z,100919.06
2023-03-05T03:45:41.980Z,100915.19
2023-03-05T03:48:11.363Z,100912.69
2023-03-05T03:50:39.931Z,100908.63
2023-03-05T03:53:07.543Z,100912.41
2023-03-05T03:55:35.588Z,100914.06
2023-03-05T03:58:03.334Z,100911.44
2023-03-05T04:00:30.877Z,100910.47
2023-03-05T04:02:58.413Z,100907.28
2023-03-05T04:05:27.352Z,100909.31
2023-03-05T04:07:55.082Z,100914.88
2023-03-05T04:10:22.989Z,100908.22
2023-03-05T04:12:50.502Z,100906.72
2023-03-05T04:15:18.467Z,100903.78
2023-03-05T04:17:46.016Z,100908.22
2023-03-05T04:20:14.094Z,100900.81
2023-03-05T04:22:42.941Z,100901.22
2023-03-05T04:25:11.445Z,100895.38
2023-03-05T04:27:40.145Z,100899.56
2023-03-05T04:30:09.230Z,100901.38
2023-03-05T04:32:36.880Z,100902.34
2023-03-05T04:35:04.980Z,100904.31
2023-03-05T04:37:32.532Z,100901.56
2023-03-05T04:40:01.535Z,100906.31
2023-03-05T04:42:29.011Z,100893.38
2023-03-05T04:44:56.627Z,100903.34
2023-03-05T04:47:24.162Z,100903.72
2023-03-05T04:49:51.824Z,100904.00
2023-03-05T04:52:19.300Z,100891.09
2023-03-05T04:54:46.889Z,100900.72
2023-03-05T04:57:15.737Z,100903.38
2023-03-05T04:59:43.247Z,100896.84
2023-03-05T05:02:10.762Z,100902.84
2023-03-05T05:04:38.650Z,100894.63
2023-03-05T05:07:07.529Z,100893.78
2023-03-05T05:09:35.059Z,100882.56
2023-03-05T05:12:02.554Z,100883.94
2023-03-05T05:14:31.476Z,100887.28
2023-03-05T05:16:59.576Z,100877.69
2023-03-05T05:19:27.141Z,100876.72
2023-03-05T05:21:54.686Z,100879.09
2023-03-05T05:24:22.224Z,100877.97
2023-03-05T05:26:49.715Z,100866.47
2023-03-05T05:29:17.194Z,100868.16
2023-03-05T05:31:46.290Z,100869.56
2023-03-05T05:34:13.953Z,100862.59
2023-03-05T05:36:41.500Z,100868.00
2023-03-05T05:39:09.407Z,100851.50
2023-03-05T05:41:36.972Z,100850.09
2023-03-05T05:44:04.618Z,100847.78
2023-03-05T05:46:32.151Z,100851.13
2023-03-05T05:49:01.072Z,100860.81
2023-03-05T05:51:28.620Z,100856.41
2023-03-05T05:53:56.105Z,100850.81
2023-03-05T05:56:23.643Z,100851.13
2023-03-05T05:58:51.157Z,100847.09
2023-03-05T06:01:21.117Z,100847.38
2023-03-05T06:03:49.045Z,100845.41
2023-03-05T06:06:19.642Z,100843.91
2023-03-05T06:08:47.309Z,100835.13
2023-03-05T06:11:15.195Z,100842.63
2023-03-05T06:13:43.468Z,100839.03
2023-03-05T06:16:15.458Z,100842.19
2023-03-05T06:18:43.060Z,100841.34
2023-03-05T06:21:13.094Z,100840.28
2023-03-05T06:23:42.097Z,100839.28
2023-03-05T06:26:10.462Z,100839.47
2023-03-05T06:28:37.965Z,100843.19
2023-03-05T06:31:07.269Z,100850.56
2023-03-05T06:33:35.058Z,100844.59
2023-03-05T06:36:04.254Z,100848.47
2023-03-05T06:38:32.272Z,100839.59
2023-03-05T06:41:05.678Z,100845.56
2023-03-05T06:43:35.479Z,100849.72
2023-03-05T06:46:04.775Z,100849.19
2023-03-05T06:48:32.791Z,100829.19
2023-03-05T06:51:00.814Z,100841.41
2023-03-05T06:53:28.696Z,100846.53
2023-03-05T06:55:56.421Z,100855.00
2023-03-05T06:58:25.638Z,100854.44
2023-03-05T07:00:53.361Z,100851.66
2023-03-05T07:03:21.012Z,100850.44
2023-03-05T07:05:48.552Z,100855.13
2023-03-05T07:08:16.607Z,100858.47
2023-03-05T07:10:44.806Z,100856.41
2023-03-05T07:13:12.558Z,100868.31
2023-03-05T07:15:42.079Z,100862.50
2023-03-05T07:18:09.848Z,100861.94
2023-03-05T07:20:37.915Z,100860.94
2023-03-05T07:23:05.818Z,100856.25
2023-03-05T07:25:34.271Z,100865.41
2023-03-05T07:28:01.949Z,100856.94
2023-03-05T07:30:29.671Z,100854.97
2023-03-05T07:32:58.744Z,100856.66
2023-03-05T07:35:27.551Z,100860.81
2023-03-05T07:37:55.908Z,100860.00
2023-03-05T07:40:23.671Z,100862.22
2023-03-05T07:42:51.449Z,100857.22
2023-03-05T07:45:19.203Z,100849.56
2023-03-05T07:47:46.952Z,100853.88
2023-03-05T07:50:16.422Z,100846.97
2023-03-05T07:52:44.067Z,100855.28
2023-03-05T07:55:12.345Z,100849.84
2023-03-05T07:57:40.049Z,100844.84
2023-03-05T08:00:09.044Z,100853.47
2023-03-05T08:02:39.036Z,100849.56
2023-03-05T08:05:07.280Z,100845.69
2023-03-05T08:07:36.292Z,100848.59
2023-03-05T08:10:04.508Z,100848.06
2023-03-05T08:12:32.198Z,100849.44
2023-03-05T08:15:00.015Z,100846.25
2023-03-05T08:17:27.678Z,100851.94
2023-03-05T08:19:58.282Z,100846.25
2023-03-05T08:22:26.018Z,100844.72
2023-03-05T08:24:55.050Z,100847.09
2023-03-05T08:27:22.956Z,100835.28
2023-03-05T08:29:50.734Z,100841.25
2023-03-05T08:32:18.881Z,100838.75
2023-03-05T08:34:46.630Z,100835.69
2023-03-05T08:37:14.372Z,100837.75
2023-03-05T08:39:43.386Z,100831.53
2023-03-05T08:42:12.590Z,100822.25
2023-03-05T08:44:40.247Z,100826.69
2023-03-05T08:47:08.233Z,100831.38
2023-03-05T08:49:37.221Z,100821.94
2023-03-05T08:52:05.118Z,100832.63
2023-03-05T08:54:32.819Z,100821.38
2023-03-05T08:57:01.429Z,100818.25
2023-03-05T08:59:30.589Z,100823.63
2023-03-05T09:02:01.621Z,100820.16
2023-03-05T09:04:29.280Z,100817.38
2023-03-05T09:06:58.095Z,100816.59
2023-03-05T09:09:25.818Z,100815.69
2023-03-05T09:11:53.938Z,100812.00
2023-03-05T09:14:21.803Z,100806.97
2023-03-05T09:16:50.637Z,100805.19
2023-03-05T09:19:18.109Z,100799.19
2023-03-05T09:21:45.607Z,100802.56
2023-03-05T09:24:15.205Z,100795.28
2023-03-05T09:26:43.143Z,100801.13
2023-03-05T09:29:10.646Z,100796.41
2023-03-05T09:31:38.256Z,100804.22
2023-03-05T09:34:08.766Z,100794.56
2023-03-05T09:36:36.291Z,100793.97
2023-03-05T09:39:04.598Z,100803.53
2023-03-05T09:41:51.465Z,100793.31
2023-03-05T09:44:26.112Z,100792.88
2023-03-05T09:46:55.721Z,100785.94
2023-03-05T09:49:33.668Z,100774.25
2023-03-05T09:52:05.153Z,100787.88
2023-03-05T09:54:38.326Z,100777.31
2023-03-05T09:57:07.106Z,100789.63
2023-03-05T09:59:37.868Z,100775.16
2023-03-05T10:02:14.225Z,100771.44
2023-03-05T10:04:46.653Z,100760.75
2023-03-05T10:07:18.143Z,100768.44
2023-03-05T10:09:48.110Z,100762.25
2023-03-05T10:12:23.303Z,100759.19
2023-03-05T10:14:51.093Z,100753.09
2023-03-05T10:17:40.706Z,100750.53
2023-03-05T10:20:37.350Z,100760.16
2023-03-05T10:23:35.164Z,100743.47
2023-03-05T10:26:16.053Z,100745.16
2023-03-05T10:28:46.923Z,100744.00
2023-03-05T10:31:37.487Z,100740.75
2023-03-05T10:34:14.628Z,100744.66
2023-03-05T10:36:51.345Z,100728.53
2023-03-05T10:40:00.386Z,100732.75
2023-03-05T10:42:32.202Z,100729.41
2023-03-05T10:45:01.137Z,100729.63
2023-03-05T10:47:31.608Z,100731.06
2023-03-05T10:50:00.445Z,100724.72
2023-03-05T10:52:36.694Z,100728.75
2023-03-05T10:55:17.761Z,100732.53
2023-03-05T10:57:45.609Z,100727.44
2023-03-05T11:00:18.956Z,100731.13
2023-03-05T11:02:59.282Z,100732.72
2023-03-05T11:05:40.379Z,100721.81
2023-03-05T11:08:24.964Z,100731.25
2023-03-05T11:11:21.475Z,100728.66
2023-03-05T11:13:54.920Z,100715.25
2023-03-05T11:16:26.366Z,100724.00
2023-03-05T11:19:18.478Z,100724.00
2023-03-05T11:21:47.001Z,100716.91
2023-03-05T11:24:18.980Z,100716.53
2023-03-05T11:26:49.111Z,100721.31
2023-03-05T11:29:22.737Z,100705.88
2023-03-05T11:31:50.668Z,100706.31
2023-03-05T11:34:31.402Z,100704.53
2023-03-05T11:37:04.658Z,100697.16
2023-03-05T11:39:36.590Z,100697.22
2023-03-05T11:42:06.302Z,100686.66
2023-03-05T11:44:35.886Z,100683.47
2023-03-05T11:47:06.152Z,100687.16
2023-03-05T11:49:47.538Z,100677.19
2023-03-05T11:52:17.233Z,100669.16
2023-03-05T11:54:53.786Z,100661.56
2023-03-05T11:57:22.827Z,100657.38
2023-03-05T11:59:51.186Z,100654.41
2023-03-05T12:02:20.798Z,100655.28
2023-03-05T12:04:49.039Z,100650.03
2023-03-05T12:07:19.804Z,100646.94
2023-03-05T12:09:50.107Z,100639.81
2023-03-05T12:12:26.910Z,100628.91
2023-03-05T12:14:59.205Z,100621.31
2023-03-05T12:17:31.473Z,100621.09
2023-03-05T12:19:59.766Z,100617.19
2023-03-05T12:22:33.943Z,100604.38
2023-03-05T12:25:28.727Z,100614.16
2023-03-05T12:27:56.345Z,100612.59
2023-03-05T12:30:59.182Z,100607.41
2023-03-05T12:33:35.771Z,100604.69
2023-03-05T12:36:35.353Z,100599.00
2023-03-05T12:39:41.788Z,100592.09
2023-03-05T12:42:42.938Z,100591.22
2023-03-05T12:45:34.577Z,100590.81
2023-03-05T12:48:42.321Z,100589.03
2023-03-05T12:51:17.044Z,100571.06
2023-03-05T12:53:44.660Z,100573.66
2023-03-05T12:56:19.889Z,100569.94
2023-03-05T12:58:49.405Z,100567.88
2023-03-05T13:01:35.934Z,100559.66
2023-03-05T13:04:10.540Z,100559.00
2023-03-05T13:06:39.439Z,100552.47
2023-03-05T13:09:17.006Z,100545.88
2023-03-05T13:11:47.210Z,100552.78
2023-03-05T13:14:29.458Z,100553.75
2023-03-05T13:16:58.367Z,100550.28
2023-03-05T13:19:25.931Z,100542.94
2023-03-05T13:22:00.533Z,100540.56
2023-03-05T13:24:29.124Z,100547.94
2023-03-05T13:26:57.145Z,100540.78
2023-03-05T13:29:28.144Z,100534.16
2023-03-05T13:31:59.738Z,100526.47
2023-03-05T13:34:40.847Z,100512.78
2023-03-05T13:37:20.387Z,100515.56
2023-03-05T13:39:49.964Z,100514.59
2023-03-05T13:42:20.111Z,100519.03
2023-03-05T13:44:57.854Z,100505.69
2023-03-05T13:47:29.366Z,100512.09
2023-03-05T13:49:59.811Z,100511.59
2023-03-05T13:52:29.672Z,100511.66
2023-03-05T13:54:57.335Z,100496.53
2023-03-05T13:57:35.809Z,100495.22
2023-03-05T14:00:06.375Z,100495.59
2023-03-05T14:02:35.346Z,100480.91
2023-03-05T14:05:02.938Z,100485.25
2023-03-05T14:07:33.602Z,100480.91
2023-03-05T14:10:03.015Z,100479.97
2023-03-05T14:12:37.243Z,100468.69
2023-03-05T14:15:21.650Z,100473.94
2023-03-05T14:17:50.958Z,100467.63
2023-03-05T14:20:23.970Z,100455.38
2023-03-05T14:22:53.086Z,100457.91
2023-03-05T14:25:28.774Z,100456.00
2023-03-05T14:27:56.608Z,100457.38
2023-03-05T14:30:25.484Z,100447.72
2023-03-05T14:32:56.492Z,100451.28
2023-03-05T14:35:27.120Z,100442.56
2023-03-05T14:37:56.623Z,100443.84
2023-03-05T14:40:28.820Z,100452.16
2023-03-05T14:42:57.171Z,100444.22
2023-03-05T14:45:26.455Z,100436.97
2023-03-05T14:47:59.204Z,100423.63
2023-03-05T14:50:29.416Z,100423.56
2023-03-05T14:52:58.856Z,100423.78
2023-03-05T14:55:28.105Z,100414.47
2023-03-05T14:58:00.779Z,100420.69
2023-03-05T15:00:29.559Z,100401.84
2023-03-05T15:02:58.793Z,100411.38
2023-03-05T15:05:26.477Z,100407.72
2023-03-05T15:07:54.102Z,100404.09
2023-03-05T15:10:23.594Z,100404.09
2023-03-05T15:12:53.079Z,100401.56
2023-03-05T15:15:21.651Z,100395.97
2023-03-05T15:17:51.747Z,100390.06
2023-03-05T15:20:22.841Z,100387.81
2023-03-05T15:22:50.826Z,100380.56
2023-03-05T15:25:20.088Z,100377.72
2023-03-05T15:27:47.924Z,100379.91
2023-03-05T15:30:23.198Z,100374.78
2023-03-05T15:32:51.601Z,100372.59
2023-03-05T15:35:24.453Z,100369.03
2023-03-05T15:37:52.241Z,100371.97
2023-03-05T15:40:21.025Z,100367.41
2023-03-05T15:42:48.879Z,100367.22
2023-03-05T15:45:18.302Z,100360.13
2023-03-05T15:47:46.042Z,100346.13
2023-03-05T15:50:13.933Z,100350.94
2023-03-05T15:52:42.830Z,100351.81
2023-03-05T15:55:11.972Z,100350.22
2023-03-05T15:57:43.879Z,100351.56
2023-03-05T16:00:13.176Z,100342.25
2023-03-05T16:02:40.911Z,100339.06
2023-03-05T16:05:10.051Z,100335.44
2023-03-05T16:07:40.239Z,100344.13
2023-03-05T16:10:13.469Z,100338.06
2023-03-05T16:12:42.962Z,100338.84
2023-03-05T16:15:33.024Z,100325.72
2023-03-05T16:18:02.562Z,100332.25
2023-03-05T16:20:30.276Z,100328.72
2023-03-05T16:22:57.986Z,100317.03
2023-03-05T16:25:27.108Z,100326.97
2023-03-05T16:27:54.935Z,100309.16
2023-03-05T16:30:22.665Z,100317.34
2023-03-05T16:32:52.385Z,100309.09
2023-03-05T16:35:21.522Z,100314.84
2023-03-05T16:37:49.254Z,100314.22
2023-03-05T16:40:17.108Z,100310.44
2023-03-05T16:42:46.087Z,100308.94
2023-03-05T16:45:14.384Z,100301.78
2023-03-05T16:47:43.495Z,100303.81
2023-03-05T16:50:18.355Z,100301.13
2023-03-05T16:52:49.052Z,100305.84
2023-03-05T16:55:16.716Z,100304.75
2023-03-05T16:57:45.751Z,100310.94
2023-03-05T17:00:14.625Z,100304.34
2023-03-05T17:02:42.356Z,100305.69
2023-03-05T17:05:10.600Z,100306.81
2023-03-05T17:07:40.664Z,100301.47
2023-03-05T17:10:09.486Z,100305.25
2023-03-05T17:12:37.197Z,100294.22
2023-03-05T17:15:09.263Z,100296.50
2023-03-05T17:17:40.407Z,100295.63
2023-03-05T17:20:09.811Z,100294.84
2023-03-05T17:22:37.429Z,100298.59
2023-03-05T17:25:05.477Z,100298.91
2023-03-05T17:27:33.030Z,100298.75
2023-03-05T17:30:00.737Z,100298.38
2023-03-05T17:32:29.776Z,100294.13
2023-03-05T17:34:57.689Z,100289.38
2023-03-05T17:37:25.322Z,100288.50
2023-03-05T17:39:53.600Z,100296.91
2023-03-05T17:42:21.983Z,100293.63
2023-03-05T17:44:50.476Z,100292.09
2023-03-05T17:47:18.092Z,100290.31
2023-03-05T17:49:52.958Z,100288.19
2023-03-05T17:52:21.455Z,100285.50
2023-03-05T17:54:50.341Z,100284.19
2023-03-05T17:57:18.008Z,100282.63
2023-03-05T17:59:49.280Z,100284.25
2023-03-05T18:02:16.989Z,100281.53
2023-03-05T18:04:44.818Z,100280.38
2023-03-05T18:07:13.774Z,100278.16
2023-03-05T18:09:41.277Z,100274.72
2023-03-05T18:12:08.833Z,100277.84
2023-03-05T18:14:36.334Z,100274.22
2023-03-05T18:17:03.825Z,100273.50
2023-03-05T18:19:31.318Z,100271.66
2023-03-05T18:21:58.774Z,100269.50
2023-03-05T18:24:27.639Z,100264.38
2023-03-05T18:26:57.436Z,100261.81
2023-03-05T18:29:25.086Z,100258.50
2023-03-05T18:31:52.557Z,100268.25
2023-03-05T18:34:23.350Z,100257.63
2023-03-05T18:36:50.858Z,100260.25
2023-03-05T18:39:18.662Z,100253.19
2023-03-05T18:41:50.110Z,100263.22
2023-03-05T18:44:19.738Z,100250.88
2023-03-05T18:46:48.515Z,100242.19
2023-03-05T18:49:15.984Z,100243.22
2023-03-05T18:51:43.702Z,100243.06
2023-03-05T18:54:11.244Z,100241.81
2023-03-05T18:56:38.707Z,100243.38
2023-03-05T18:59:08.780Z,100239.81
2023-03-05T19:01:37.511Z,100239.09
2023-03-05T19:04:05.591Z,100239.44
2023-03-05T19:06:33.217Z,100241.22
2023-03-05T19:09:09.735Z,100235.75
2023-03-05T19:11:37.550Z,100232.97
2023-03-05T19:14:05.131Z,100237.59
2023-03-05T19:16:40.375Z,100232.16
2023-03-05T19:19:15.250Z,100229.50
2023-03-05T19:21:43.440Z,100231.09
2023-03-05T19:24:11.989Z,100225.84
2023-03-05T19:26:39.967Z,100228.09
2023-03-05T19:29:09.381Z,100230.72
2023-03-05T19:31:41.581Z,100227.28
2023-03-05T19:34:11.635Z,100222.63
2023-03-05T19:36:39.516Z,100218.59
2023-03-05T19:39:08.311Z,100206.19
2023-03-05T19:41:36.515Z,100222.25
2023-03-05T19:44:05.239Z,100212.00
2023-03-05T19:46:33.293Z,100205.16
2023-03-05T19:49:02.340Z,100205.25
2023-03-05T19:51:30.107Z,100197.63
2023-03-05T19:53:57.847Z,100194.09
2023-03-05T19:56:25.571Z,100197.56
2023-03-05T19:58:53.281Z,100195.75
2023-03-05T20:01:23.071Z,100195.13
2023-03-05T20:03:51.971Z,100193.78
2023-03-05T20:06:24.130Z,100190.22
2023-03-05T20:08:51.934Z,100181.34
2023-03-05T20:11:20.667Z,100183.75
2023-03-05T20:13:48.580Z,100179.31
2023-03-05T20:16:17.338Z,100175.66
2023-03-05T20:18:52.557Z,100178.22
2023-03-05T20:21:23.218Z,100173.47
2023-03-05T20:23:50.933Z,100172.19
2023-03-05T20:26:18.816Z,100178.34
2023-03-05T20:29:17.360Z,100176.28
2023-03-05T20:31:41.827Z,100173.66
2023-03-05T20:34:12.000Z,100174.91
2023-03-05T20:36:42.465Z,100170.22
2023-03-05T20:39:10.119Z,100167.72
2023-03-05T20:41:39.791Z,100161.25
2023-03-05T20:44:08.686Z,100162.31
2023-03-05T20:46:39.352Z,100168.91
2023-03-05T20:49:07.003Z,100160.69
2023-03-05T20:51:36.334Z,100170.84
2023-03-05T20:54:08.594Z,100150.75
2023-03-05T20:56:36.980Z,100163.88
2023-03-05T20:59:07.486Z,100163.25
2023-03-05T21:01:36.935Z,100149.91
2023-03-05T21:04:05.314Z,100153.34
2023-03-05T21:06:33.802Z,100141.78
2023-03-05T21:09:01.440Z,100141.69
2023-03-05T21:11:30.595Z,100135.78
2023-03-05T21:13:59.047Z,100149.13
2023-03-05T21:16:28.362Z,100146.63
2023-03-05T21:18:57.190Z,100143.91
2023-03-05T21:21:25.040Z,100138.94
2023-03-05T21:23:53.350Z,100126.31
2023-03-05T21:26:21.132Z,100135.34
2023-03-05T21:28:50.308Z,100132.38
2023-03-05T21:31:19.864Z,100139.94
2023-03-05T21:33:47.772Z,100129.41
2023-03-05T21:36:18.543Z,100129.75
2023-03-05T21:38:46.913Z,100117.88
2023-03-05T21:41:14.653Z,100117.72
2023-03-05T21:43:46.398Z,100105.75
2023-03-05T21:46:15.503Z,100099.50
2023-03-05T21:48:43.124Z,100094.88
2023-03-05T21:51:13.564Z,100100.06
2023-03-05T21:53:41.370Z,100091.41
2023-03-05T21:56:22.009Z,100082.03
2023-03-05T21:58:50.791Z,100081.72
2023-03-05T22:01:21.021Z,100076.94
2023-03-05T22:03:49.533Z,100075.91
2023-03-05T22:06:18.633Z,100067.53
2023-03-05T22:08:47.132Z,100063.59
2023-03-05T22:11:16.588Z,100060.78
2023-03-05T22:13:44.480Z,100064.75
2023-03-05T22:16:14.457Z,100055.66
2023-03-05T22:18:46.150Z,100042.34
2023-03-05T22:21:20.469Z,100044.97
2023-03-05T22:23:48.412Z,100042.97
2023-03-05T22:26:18.728Z,100043.75
2023-03-05T22:28:48.002Z,100036.84
2023-03-05T22:31:23.647Z,100032.84
2023-03-05T22:33:55.614Z,100024.44
2023-03-05T22:36:26.731Z,100029.34
2023-03-05T22:38:55.616Z,100019.94
2023-03-05T22:41:23.223Z,100020.03
2023-03-05T22:43:52.808Z,100015.34
2023-03-05T22:46:22.741Z,100015.97
2023-03-05T22:48:52.454Z,100013.38
2023-03-05T22:51:20.138Z,100007.25
2023-03-05T22:53:47.701Z,100002.81
2023-03-05T22:56:17.029Z,100006.09
2023-03-05T22:58:44.630Z,100007.81
2023-03-05T23:01:13.121Z,100004.50
2023-03-05T23:03:41.370Z,100004.25
2023-03-05T23:06:10.753Z,99995.88
2023-03-05T23:08:38.507Z,99997.03
2023-03-05T23:11:10.945Z,99996.88
2023-03-05T23:13:38.599Z,99989.28
2023-03-05T23:16:06.812Z,99978.53
2023-03-05T23:18:34.423Z,99983.31
2023-03-05T23:21:01.943Z,99987.81
2023-03-05T23:23:30.863Z,99972.09
2023-03-05T23:25:58.375Z,99975.25
2023-03-05T23:28:26.210Z,99970.47
2023-03-05T23:30:53.739Z,99979.16
2023-03-05T23:33:24.349Z,99973.38
2023-03-05T23:35:53.567Z,99973.72
2023-03-05T23:38:21.523Z,99973.97
2023-03-05T23:40:53.826Z,99969.47
2023-03-05T23:43:24.475Z,99961.78
2023-03-05T23:45:54.776Z,99965.06
2023-03-05T23:48:22.856Z,99958.63
2023-03-05T23:50:50.520Z,99956.84
2023-03-05T23:53:20.575Z,99956.38
2023-03-05T23:55:50.273Z,99958.63
2023-03-05T23:58:18.917Z,99955.00
